Time;durP1;ratioP1;P1;durP2;ratioP2;P2;SDS_P1;SDS_P2;PMS_P1;PMS_P2;Temp;Humidity;BMP_temperature;BMP_pressure;BME280_temperature;BME280_humidity;BME280_pressure;Samples;Min_cycle;Max_cycle;Signal;HPM_P1;HPM_P2
2023/08/13 00:02:05;;;;;;;0.10;0.10;;;20.10;99.90;;;;;;5091026;28;20537;-59
2023/08/13 00:04:31;;;;;;;0.00;0.00;;;20.00;99.90;;;;;;5091139;28;20179;-60
2023/08/13 00:06:57;;;;;;;0.00;0.00;;;20.00;99.90;;;;;;5091373;28;20259;-59
2023/08/13 00:09:22;;;;;;;0.00;0.00;;;19.90;99.90;;;;;;5091370;28;20230;-59
2023/08/13 00:11:48;;;;;;;0.00;0.00;;;19.90;99.90;;;;;;5092696;28;20176;-59
2023/08/13 00:14:14;;;;;;;0.00;0.00;;;19.90;99.90;;;;;;5095316;28;20268;-59
2023/08/13 00:16:39;;;;;;;0.00;0.00;;;19.90;99.90;;;;;;5095089;28;20179;-59
2023/08/13 00:19:06;;;;;;;0.00;0.00;;;19.90;99.90;;;;;;5095196;28;20184;-59
2023/08/13 00:21:31;;;;;;;0.00;0.00;;;19.90;99.90;;;;;;5094780;28;20699;-59
2023/08/13 00:23:57;;;;;;;0.00;0.00;;;19.80;99.90;;;;;;5094771;28;20262;-59
2023/08/13 00:26:22;;;;;;;0.60;0.55;;;19.80;99.90;;;;;;5094800;28;20628;-59
2023/08/13 00:28:48;;;;;;;0.00;0.00;;;19.80;99.90;;;;;;5094601;28;20220;-59
2023/08/13 00:31:14;;;;;;;0.00;0.00;;;19.70;99.90;;;;;;5094660;28;20184;-59
2023/08/13 00:33:39;;;;;;;0.03;0.03;;;19.80;99.90;;;;;;5094572;28;20173;-59
2023/08/13 00:36:05;;;;;;;0.00;0.00;;;19.70;99.90;;;;;;5094601;28;20179;-59
2023/08/13 00:38:31;;;;;;;0.00;0.00;;;19.60;99.90;;;;;;5094620;28;20210;-59
2023/08/13 00:40:56;;;;;;;0.00;0.00;;;19.60;99.90;;;;;;5094408;28;20248;-59
2023/08/13 00:43:22;;;;;;;0.00;0.00;;;19.60;99.90;;;;;;5094552;28;20176;-59
2023/08/13 00:45:48;;;;;;;0.00;0.00;;;19.60;99.90;;;;;;5094628;28;20180;-59
2023/08/13 00:48:13;;;;;;;0.00;0.00;;;19.60;99.90;;;;;;5094429;28;20184;-61
2023/08/13 00:50:39;;;;;;;0.00;0.00;;;19.60;99.90;;;;;;5094537;28;20212;-60
2023/08/13 00:53:06;;;;;;;0.00;0.00;;;19.50;99.90;;;;;;5094576;28;20200;-60
2023/08/13 00:55:32;;;;;;;0.00;0.00;;;19.50;99.90;;;;;;5094639;28;20261;-61
2023/08/13 00:57:59;;;;;;;0.00;0.00;;;19.50;99.90;;;;;;5094305;28;20541;-61
2023/08/13 01:00:26;;;;;;;0.00;0.00;;;19.50;99.90;;;;;;5094175;28;20203;-60
2023/08/13 01:02:51;;;;;;;0.10;0.10;;;19.40;99.90;;;;;;5094431;28;20188;-60
2023/08/13 01:05:17;;;;;;;0.00;0.00;;;19.40;99.90;;;;;;5094180;28;20695;-60
2023/08/13 01:07:53;;;;;;;0.00;0.00;;;19.40;99.90;;;;;;5094428;28;20218;-60
2023/08/13 01:10:33;;;;;;;0.00;0.00;;;19.40;99.90;;;;;;5094287;28;20170;-60
2023/08/13 01:13:17;;;;;;;0.00;0.00;;;19.40;99.90;;;;;;5094082;28;20579;-61
2023/08/13 01:15:44;;;;;;;0.00;0.00;;;19.40;99.90;;;;;;5094099;28;20190;-61
2023/08/13 01:18:10;;;;;;;0.00;0.00;;;19.40;99.90;;;;;;5093889;28;20230;-61
2023/08/13 01:20:39;;;;;;;0.00;0.00;;;19.30;99.90;;;;;;5093916;28;20219;-61
2023/08/13 01:23:05;;;;;;;0.00;0.00;;;19.30;99.90;;;;;;5093284;28;20251;-61
2023/08/13 01:25:32;;;;;;;0.00;0.00;;;19.30;99.90;;;;;;5093995;28;20582;-60
2023/08/13 01:28:28;;;;;;;0.00;0.00;;;19.30;99.90;;;;;;5093742;28;20172;-61
2023/08/13 01:31:12;;;;;;;0.00;0.00;;;19.30;99.90;;;;;;5093843;28;20707;-61
2023/08/13 01:33:40;;;;;;;0.00;0.00;;;19.30;99.90;;;;;;5093662;28;20539;-60
2023/08/13 01:36:07;;;;;;;0.00;0.00;;;19.30;99.90;;;;;;5093623;28;20510;-61
2023/08/13 01:38:34;;;;;;;0.00;0.00;;;19.30;99.90;;;;;;5093782;28;20168;-60
2023/08/13 01:41:03;;;;;;;0.00;0.00;;;19.30;99.90;;;;;;5093512;28;20747;-61
2023/08/13 01:43:29;;;;;;;0.00;0.00;;;19.30;99.90;;;;;;5093637;28;20207;-60
2023/08/13 01:45:56;;;;;;;0.00;0.00;;;19.30;99.90;;;;;;5092246;28;20176;-60
2023/08/13 01:48:21;;;;;;;0.00;0.00;;;19.20;99.90;;;;;;5093536;28;20169;-60
2023/08/13 01:50:47;;;;;;;0.00;0.00;;;19.20;99.90;;;;;;5093471;28;20178;-60
2023/08/13 01:53:12;;;;;;;0.00;0.00;;;19.20;99.90;;;;;;5094012;28;20182;-60
2023/08/13 01:55:38;;;;;;;0.00;0.00;;;19.10;99.90;;;;;;5093534;28;20180;-60
2023/08/13 01:58:04;;;;;;;0.00;0.00;;;19.10;99.90;;;;;;5093300;28;20180;-60
2023/08/13 02:00:29;;;;;;;0.05;0.05;;;19.10;99.90;;;;;;5093131;28;20630;-60
2023/08/13 02:02:55;;;;;;;0.00;0.00;;;19.10;99.90;;;;;;5093145;28;20643;-60
2023/08/13 02:05:21;;;;;;;0.00;0.00;;;19.00;99.90;;;;;;5093041;28;20195;-60
2023/08/13 02:07:46;;;;;;;0.00;0.00;;;19.00;99.90;;;;;;5092945;28;20662;-60
2023/08/13 02:10:12;;;;;;;0.00;0.00;;;19.00;99.90;;;;;;5091771;28;20168;-60
2023/08/13 02:12:39;;;;;;;0.20;0.20;;;19.00;99.90;;;;;;5093136;28;20202;-60
2023/08/13 02:15:05;;;;;;;0.00;0.00;;;19.00;99.90;;;;;;5092918;28;20180;-60
2023/08/13 02:17:31;;;;;;;0.00;0.00;;;19.00;99.90;;;;;;5092875;28;20187;-60
2023/08/13 02:19:56;;;;;;;0.00;0.00;;;19.00;99.90;;;;;;5092735;28;20208;-60
2023/08/13 02:22:22;;;;;;;0.00;0.00;;;19.00;99.90;;;;;;5092822;28;20177;-60
2023/08/13 02:24:47;;;;;;;0.00;0.00;;;18.90;99.90;;;;;;5092818;28;20176;-60
2023/08/13 02:27:13;;;;;;;0.00;0.00;;;18.90;99.90;;;;;;5092842;28;20263;-60
2023/08/13 02:29:38;;;;;;;0.13;0.10;;;18.90;99.90;;;;;;5092621;28;20585;-60
2023/08/13 02:32:04;;;;;;;0.00;0.00;;;18.90;99.90;;;;;;5092768;28;20359;-60
2023/08/13 02:34:41;;;;;;;0.00;0.00;;;18.90;99.90;;;;;;5092219;28;20537;-60
2023/08/13 02:37:07;;;;;;;0.00;0.00;;;18.90;99.90;;;;;;5092315;28;20203;-60
2023/08/13 02:39:32;;;;;;;0.00;0.00;;;18.90;99.90;;;;;;5092621;28;20607;-61
2023/08/13 02:41:58;;;;;;;0.00;0.00;;;18.90;99.90;;;;;;5092520;28;20284;-60
2023/08/13 02:44:25;;;;;;;0.00;0.00;;;18.80;99.90;;;;;;5092577;28;20184;-60
2023/08/13 02:46:50;;;;;;;0.00;0.00;;;18.80;99.90;;;;;;5092455;28;20176;-60
2023/08/13 02:49:16;;;;;;;0.00;0.00;;;18.80;99.90;;;;;;5092483;28;20266;-60
2023/08/13 02:51:41;;;;;;;0.00;0.00;;;18.80;99.90;;;;;;5092353;28;20237;-60
2023/08/13 02:54:07;;;;;;;0.00;0.00;;;18.80;99.90;;;;;;5092229;28;20183;-60
2023/08/13 02:56:32;;;;;;;0.00;0.00;;;18.90;99.90;;;;;;5092379;28;20683;-60
2023/08/13 02:58:58;;;;;;;0.00;0.00;;;18.90;99.90;;;;;;5092299;28;20199;-60
2023/08/13 03:01:23;;;;;;;0.00;0.00;;;18.90;99.90;;;;;;5092196;28;20215;-60
2023/08/13 03:03:52;;;;;;;0.00;0.00;;;18.90;99.90;;;;;;5092118;28;20651;-61
2023/08/13 03:06:18;;;;;;;0.00;0.00;;;18.90;99.90;;;;;;5092124;28;20180;-60
2023/08/13 03:08:44;;;;;;;0.00;0.00;;;18.90;99.90;;;;;;5092202;28;20176;-60
2023/08/13 03:11:09;;;;;;;0.00;0.00;;;18.90;99.90;;;;;;5091976;28;20704;-60
2023/08/13 03:13:35;;;;;;;0.00;0.00;;;18.90;99.90;;;;;;5092110;28;20667;-60
2023/08/13 03:16:01;;;;;;;0.00;0.00;;;18.90;99.90;;;;;;5091954;28;20203;-60
2023/08/13 03:18:27;;;;;;;0.00;0.00;;;18.90;99.90;;;;;;5091883;28;20172;-60
2023/08/13 03:20:52;;;;;;;0.00;0.00;;;18.90;99.90;;;;;;5092023;28;20706;-60
2023/08/13 03:23:18;;;;;;;0.00;0.00;;;18.90;99.90;;;;;;5091885;28;20293;-60
2023/08/13 03:25:44;;;;;;;0.03;0.00;;;18.90;99.90;;;;;;5091975;28;20184;-60
2023/08/13 03:28:09;;;;;;;0.00;0.00;;;19.00;99.90;;;;;;5091521;28;20603;-60
2023/08/13 03:30:35;;;;;;;0.00;0.00;;;19.00;99.90;;;;;;5091845;28;20250;-60
2023/08/13 03:33:00;;;;;;;0.25;0.25;;;19.00;99.90;;;;;;5091779;28;20168;-60
2023/08/13 03:35:26;;;;;;;0.00;0.00;;;19.00;99.90;;;;;;5091877;28;20540;-60
2023/08/13 03:37:51;;;;;;;0.00;0.00;;;19.00;99.90;;;;;;5091796;28;20172;-60
2023/08/13 03:40:17;;;;;;;0.00;0.00;;;19.00;99.90;;;;;;5091652;28;20212;-61
2023/08/13 03:42:42;;;;;;;0.00;0.00;;;19.00;99.90;;;;;;5091752;28;20172;-60
2023/08/13 03:45:08;;;;;;;0.05;0.05;;;19.00;99.90;;;;;;5091618;28;20241;-60
2023/08/13 03:47:34;;;;;;;0.05;0.05;;;19.00;99.90;;;;;;5094559;28;20258;-60
2023/08/13 03:50:00;;;;;;;0.00;0.00;;;19.00;99.90;;;;;;5095762;28;20708;-60
2023/08/13 03:52:25;;;;;;;0.00;0.00;;;19.00;99.90;;;;;;5095487;28;20187;-60
2023/08/13 03:54:51;;;;;;;0.00;0.00;;;19.00;99.90;;;;;;5095689;28;20276;-60
2023/08/13 03:57:16;;;;;;;0.00;0.00;;;19.00;99.90;;;;;;5095604;28;20178;-60
2023/08/13 03:59:42;;;;;;;0.10;0.10;;;19.00;99.90;;;;;;5095588;28;20204;-60
2023/08/13 04:02:08;;;;;;;0.00;0.00;;;18.90;99.90;;;;;;5095434;28;20191;-60
2023/08/13 04:04:33;;;;;;;0.00;0.00;;;18.90;99.90;;;;;;5095617;28;20320;-60
2023/08/13 04:06:59;;;;;;;0.00;0.00;;;18.90;99.90;;;;;;5095439;28;20712;-60
2023/08/13 04:09:24;;;;;;;0.00;0.00;;;18.90;99.90;;;;;;5095463;28;20565;-60
2023/08/13 04:11:50;;;;;;;0.00;0.00;;;18.90;99.90;;;;;;5095373;28;20619;-60
2023/08/13 04:14:15;;;;;;;0.00;0.00;;;18.90;99.90;;;;;;5095243;28;20259;-60
2023/08/13 04:16:41;;;;;;;0.00;0.00;;;18.90;99.90;;;;;;5095332;28;20184;-60
2023/08/13 04:19:06;;;;;;;0.00;0.00;;;18.90;99.90;;;;;;5095181;28;20168;-60
2023/08/13 04:21:32;;;;;;;0.00;0.00;;;18.90;99.90;;;;;;5095232;28;20204;-60
2023/08/13 04:23:58;;;;;;;0.10;0.00;;;18.90;99.90;;;;;;5095122;28;20168;-60
2023/08/13 04:26:24;;;;;;;0.00;0.00;;;18.90;99.90;;;;;;5095134;28;20509;-60
2023/08/13 04:28:50;;;;;;;0.00;0.00;;;18.90;99.90;;;;;;5094912;28;20228;-60
2023/08/13 04:31:16;;;;;;;0.00;0.00;;;18.90;99.90;;;;;;5095102;28;20177;-60
2023/08/13 04:33:42;;;;;;;0.00;0.00;;;18.90;99.90;;;;;;5094957;28;20171;-60
2023/08/13 04:36:08;;;;;;;0.00;0.00;;;18.90;99.90;;;;;;5094913;28;20555;-60
2023/08/13 04:38:33;;;;;;;0.00;0.00;;;19.00;99.90;;;;;;5095041;28;20188;-60
2023/08/13 04:41:01;;;;;;;0.00;0.00;;;19.00;99.90;;;;;;5094868;28;20215;-60
2023/08/13 04:43:26;;;;;;;0.00;0.00;;;19.00;99.90;;;;;;5094479;28;20210;-60
2023/08/13 04:45:52;;;;;;;0.03;0.03;;;19.00;99.90;;;;;;5094426;28;20215;-60
2023/08/13 04:48:38;;;;;;;0.10;0.10;;;19.10;99.90;;;;;;5094367;28;20657;-60
2023/08/13 04:51:04;;;;;;;0.00;0.00;;;19.20;99.90;;;;;;5094318;28;20191;-60
2023/08/13 04:53:29;;;;;;;0.00;0.00;;;19.20;99.90;;;;;;5094382;28;20180;-60
2023/08/13 04:55:55;;;;;;;0.00;0.00;;;19.20;99.90;;;;;;5094327;28;20181;-60
2023/08/13 04:58:20;;;;;;;0.00;0.00;;;19.30;99.90;;;;;;5093310;28;20255;-60
2023/08/13 05:00:46;;;;;;;0.00;0.00;;;19.40;99.90;;;;;;5094223;28;20287;-60
2023/08/13 05:03:11;;;;;;;0.00;0.00;;;19.40;99.90;;;;;;5094337;28;20258;-60
2023/08/13 05:05:37;;;;;;;0.10;0.00;;;19.40;99.90;;;;;;5094308;28;20168;-60
2023/08/13 05:08:03;;;;;;;0.00;0.00;;;19.50;99.90;;;;;;5092799;28;20176;-60
2023/08/13 05:10:28;;;;;;;0.00;0.00;;;19.50;99.90;;;;;;5094089;28;20188;-60
2023/08/13 05:12:54;;;;;;;0.00;0.00;;;19.50;99.90;;;;;;5094140;28;20192;-60
2023/08/13 05:15:19;;;;;;;0.00;0.00;;;19.50;99.90;;;;;;5094068;28;20223;-60
2023/08/13 05:17:45;;;;;;;0.00;0.00;;;19.60;99.90;;;;;;5093882;28;20176;-60
2023/08/13 05:20:10;;;;;;;0.35;0.10;;;19.70;99.90;;;;;;5093802;28;20221;-60
2023/08/13 05:22:36;;;;;;;0.00;0.00;;;19.70;99.90;;;;;;5093879;28;20177;-60
2023/08/13 05:25:02;;;;;;;0.00;0.00;;;19.80;99.90;;;;;;5093748;28;20539;-60
2023/08/13 05:27:27;;;;;;;0.00;0.00;;;19.90;99.90;;;;;;5093659;28;20216;-60
2023/08/13 05:29:53;;;;;;;0.00;0.00;;;20.00;99.90;;;;;;5093742;28;20220;-60
2023/08/13 05:32:19;;;;;;;0.00;0.00;;;20.10;99.90;;;;;;5093658;28;20323;-60
2023/08/13 05:34:45;;;;;;;0.00;0.00;;;20.20;99.90;;;;;;5093675;28;20195;-60
2023/08/13 05:37:10;;;;;;;0.00;0.00;;;20.30;99.90;;;;;;5093546;28;20185;-60
2023/08/13 05:39:36;;;;;;;0.00;0.00;;;20.40;99.90;;;;;;5093348;28;20176;-61
2023/08/13 05:42:01;;;;;;;0.10;0.10;;;20.50;99.90;;;;;;5093465;28;20204;-60
2023/08/13 05:44:27;;;;;;;0.00;0.00;;;20.60;99.90;;;;;;5093460;28;20259;-61
2023/08/13 05:46:52;;;;;;;0.00;0.00;;;20.60;99.90;;;;;;5093265;28;20262;-60
2023/08/13 05:49:18;;;;;;;0.00;0.00;;;20.60;99.90;;;;;;5093258;28;20195;-61
2023/08/13 05:51:43;;;;;;;0.00;0.00;;;20.70;99.90;;;;;;5093349;28;20177;-60
2023/08/13 05:54:10;;;;;;;0.00;0.00;;;20.80;99.90;;;;;;5092883;28;20208;-60
2023/08/13 05:56:37;;;;;;;0.00;0.00;;;20.90;99.90;;;;;;5093165;28;20182;-60
2023/08/13 05:59:02;;;;;;;0.00;0.00;;;21.10;99.90;;;;;;5092969;28;20172;-61
2023/08/13 06:01:29;;;;;;;0.00;0.00;;;21.10;99.90;;;;;;5092811;28;20269;-61
2023/08/13 06:03:54;;;;;;;0.00;0.00;;;21.20;99.90;;;;;;5092910;28;20218;-61
2023/08/13 06:06:21;;;;;;;0.00;0.00;;;21.30;99.90;;;;;;5092920;28;20203;-61
2023/08/13 06:08:48;;;;;;;0.00;0.00;;;21.40;99.90;;;;;;5092874;28;20691;-61
2023/08/13 06:11:14;;;;;;;0.00;0.00;;;21.50;99.90;;;;;;5092794;28;20191;-61
2023/08/13 06:13:40;;;;;;;0.00;0.00;;;21.50;99.90;;;;;;5093012;28;20168;-61
2023/08/13 06:16:06;;;;;;;0.00;0.00;;;21.60;99.90;;;;;;5092844;28;20304;-61
2023/08/13 06:18:32;;;;;;;0.30;0.20;;;21.70;99.90;;;;;;5093070;28;20202;-61
2023/08/13 06:20:58;;;;;;;0.00;0.00;;;21.80;99.90;;;;;;5092710;28;20298;-61
2023/08/13 06:23:23;;;;;;;0.00;0.00;;;21.90;99.90;;;;;;5092634;28;20569;-61
2023/08/13 06:25:49;;;;;;;0.00;0.00;;;22.00;99.90;;;;;;5092729;28;20183;-61
2023/08/13 06:28:14;;;;;;;0.00;0.00;;;22.10;99.90;;;;;;5092408;28;20216;-61
2023/08/13 06:30:43;;;;;;;0.00;0.00;;;22.20;99.90;;;;;;5092829;28;20177;-61
2023/08/13 06:33:09;;;;;;;0.00;0.00;;;22.30;99.90;;;;;;5092462;28;20186;-61
2023/08/13 06:35:34;;;;;;;0.00;0.00;;;22.50;99.90;;;;;;5092581;28;20188;-61
2023/08/13 06:38:00;;;;;;;0.00;0.00;;;22.60;99.90;;;;;;5092552;28;20168;-61
2023/08/13 06:40:25;;;;;;;0.00;0.00;;;22.80;99.90;;;;;;5092193;28;20203;-61
2023/08/13 06:42:51;;;;;;;0.00;0.00;;;23.10;99.90;;;;;;5092433;28;20222;-61
2023/08/13 06:45:17;;;;;;;0.00;0.00;;;23.30;99.90;;;;;;5092363;28;20176;-61
2023/08/13 06:47:42;;;;;;;0.00;0.00;;;23.60;99.90;;;;;;5092352;28;20183;-61
2023/08/13 06:50:08;;;;;;;0.00;0.00;;;23.80;99.90;;;;;;5092158;28;20240;-61
2023/08/13 06:52:34;;;;;;;0.00;0.00;;;23.90;99.90;;;;;;5092212;28;20214;-61
2023/08/13 06:54:59;;;;;;;0.00;0.00;;;23.90;99.90;;;;;;5092221;28;20184;-61
2023/08/13 06:57:25;;;;;;;0.00;0.00;;;23.80;99.90;;;;;;5092090;28;20180;-61
2023/08/13 06:59:50;;;;;;;0.00;0.00;;;23.60;99.90;;;;;;5092045;28;20204;-61
2023/08/13 07:02:16;;;;;;;0.00;0.00;;;23.40;99.90;;;;;;5092101;28;20172;-61
2023/08/13 07:04:42;;;;;;;0.00;0.00;;;23.30;99.90;;;;;;5091936;28;20172;-61
2023/08/13 07:07:07;;;;;;;0.00;0.00;;;23.20;99.90;;;;;;5091847;28;20176;-61
2023/08/13 07:09:33;;;;;;;0.00;0.00;;;23.20;99.90;;;;;;5091994;28;20179;-61
2023/08/13 07:11:59;;;;;;;0.00;0.00;;;23.10;99.90;;;;;;5091861;28;20199;-61
2023/08/13 07:14:25;;;;;;;0.00;0.00;;;23.10;99.90;;;;;;5091914;28;20936;-61
2023/08/13 07:16:50;;;;;;;0.00;0.00;;;23.10;99.90;;;;;;5091677;28;20531;-61
2023/08/13 07:19:16;;;;;;;0.00;0.00;;;23.10;99.90;;;;;;5091727;28;20172;-61
2023/08/13 07:21:41;;;;;;;0.00;0.00;;;23.20;99.90;;;;;;5091088;28;20298;-61
2023/08/13 07:24:07;;;;;;;0.00;0.00;;;23.30;99.90;;;;;;5091552;28;20188;-61
2023/08/13 07:26:34;;;;;;;0.00;0.00;;;23.50;99.90;;;;;;5091874;28;20275;-61
2023/08/13 07:28:59;;;;;;;0.00;0.00;;;23.60;99.90;;;;;;5091768;28;20250;-61
2023/08/13 07:31:25;;;;;;;0.00;0.00;;;23.60;99.90;;;;;;5091932;28;20639;-61
2023/08/13 07:33:52;;;;;;;0.00;0.00;;;23.70;99.90;;;;;;5091886;28;20179;-61
2023/08/13 07:36:17;;;;;;;0.00;0.00;;;23.90;99.90;;;;;;5091766;28;20215;-61
2023/08/13 07:38:43;;;;;;;0.00;0.00;;;24.00;99.90;;;;;;5091767;28;20203;-61
2023/08/13 07:41:09;;;;;;;0.00;0.00;;;24.00;99.90;;;;;;5091550;28;20318;-61
2023/08/13 07:43:34;;;;;;;0.00;0.00;;;24.20;99.90;;;;;;5091851;28;20180;-61
2023/08/13 07:46:00;;;;;;;0.10;0.10;;;24.40;99.90;;;;;;5091762;28;20251;-61
2023/08/13 07:48:26;;;;;;;0.00;0.00;;;24.70;99.90;;;;;;5091556;28;20172;-61
2023/08/13 07:50:52;;;;;;;0.00;0.00;;;25.40;99.90;;;;;;5091652;28;20184;-61
2023/08/13 07:53:18;;;;;;;0.00;0.00;;;26.10;99.90;;;;;;5091693;28;20191;-62
2023/08/13 07:55:46;;;;;;;0.00;0.00;;;26.40;99.90;;;;;;5091696;28;20180;-61
2023/08/13 07:58:12;;;;;;;0.00;0.00;;;26.50;99.90;;;;;;5091586;28;20195;-61
2023/08/13 08:00:38;;;;;;;0.00;0.00;;;26.40;99.90;;;;;;5090401;28;20235;-61
2023/08/13 08:03:04;;;;;;;0.00;0.00;;;26.50;99.90;;;;;;5091597;28;20523;-61
2023/08/13 08:05:29;;;;;;;0.00;0.00;;;26.80;99.90;;;;;;5091499;28;20172;-61
2023/08/13 08:07:55;;;;;;;0.00;0.00;;;27.00;99.90;;;;;;5091569;28;20180;-61
2023/08/13 08:10:21;;;;;;;0.00;0.00;;;27.20;99.90;;;;;;5091518;28;20187;-61
2023/08/13 08:12:46;;;;;;;0.00;0.00;;;27.70;99.90;;;;;;5091485;28;20172;-61
2023/08/13 08:15:12;;;;;;;0.00;0.00;;;28.30;99.90;;;;;;5091495;28;20187;-62
2023/08/13 08:17:38;;;;;;;0.00;0.00;;;28.90;99.90;;;;;;5091548;28;20176;-61
2023/08/13 08:20:06;;;;;;;0.00;0.00;;;29.30;99.90;;;;;;5091316;28;20200;-61
2023/08/13 08:22:32;;;;;;;0.00;0.00;;;29.50;99.90;;;;;;5091286;28;20179;-61
2023/08/13 08:24:57;;;;;;;0.05;0.05;;;29.60;99.90;;;;;;5091400;28;20226;-62
2023/08/13 08:27:23;;;;;;;0.00;0.00;;;29.70;99.90;;;;;;5091436;28;20180;-61
2023/08/13 08:29:49;;;;;;;0.00;0.00;;;29.60;99.90;;;;;;5091129;28;20786;-59
2023/08/13 08:32:14;;;;;;;0.00;0.00;;;29.30;99.90;;;;;;5091665;28;20271;-60
2023/08/13 08:34:40;;;;;;;0.00;0.00;;;29.20;99.90;;;;;;5095210;28;20211;-59
2023/08/13 08:37:05;;;;;;;0.00;0.00;;;29.20;99.90;;;;;;5094957;28;20183;-60
2023/08/13 08:39:31;;;;;;;0.00;0.00;;;29.10;99.90;;;;;;5095129;28;20168;-59
2023/08/13 08:41:57;;;;;;;0.00;0.00;;;28.90;99.90;;;;;;5094867;28;20743;-59
2023/08/13 08:44:23;;;;;;;0.00;0.00;;;28.70;99.90;;;;;;5094955;28;20665;-59
2023/08/13 08:46:50;;;;;;;0.00;0.00;;;28.30;99.90;;;;;;5094868;28;20180;-59
2023/08/13 08:49:18;;;;;;;0.00;0.00;;;28.00;99.90;;;;;;5094974;28;20168;-62
2023/08/13 08:51:45;;;;;;;0.00;0.00;;;27.60;99.90;;;;;;5094933;28;20179;-62
2023/08/13 08:54:11;;;;;;;0.00;0.00;;;27.50;99.90;;;;;;5094829;28;20255;-62
2023/08/13 08:56:37;;;;;;;0.00;0.00;;;27.60;99.90;;;;;;5094784;28;20259;-61
2023/08/13 08:59:04;;;;;;;0.00;0.00;;;27.70;99.90;;;;;;5094704;28;20259;-61
2023/08/13 09:01:30;;;;;;;0.00;0.00;;;28.20;99.90;;;;;;5094589;28;20690;-61
2023/08/13 09:03:55;;;;;;;0.00;0.00;;;28.50;99.90;;;;;;5094830;28;20219;-61
2023/08/13 09:06:21;;;;;;;0.00;0.00;;;29.00;99.90;;;;;;5094539;28;20222;-61
2023/08/13 09:08:46;;;;;;;0.00;0.00;;;29.10;99.90;;;;;;5094455;28;20309;-62
2023/08/13 09:11:12;;;;;;;0.00;0.00;;;29.20;99.90;;;;;;5094429;28;20259;-61
2023/08/13 09:13:50;;;;;;;0.00;0.00;;;29.50;99.90;;;;;;5094509;28;20249;-61
2023/08/13 09:16:15;;;;;;;0.00;0.00;;;30.10;99.90;;;;;;5094357;28;20627;-62
2023/08/13 09:18:41;;;;;;;0.00;0.00;;;30.80;99.20;;;;;;5094537;28;20179;-62
2023/08/13 09:21:08;;;;;;;0.00;0.00;;;31.40;97.40;;;;;;5094218;28;20207;-61
2023/08/13 09:23:38;;;;;;;0.00;0.00;;;31.50;96.00;;;;;;5094358;28;20195;-61
2023/08/13 09:26:03;;;;;;;0.00;0.00;;;31.80;96.30;;;;;;5094175;28;20647;-62
2023/08/13 09:28:29;;;;;;;0.00;0.00;;;32.00;95.60;;;;;;5094012;28;20223;-62
2023/08/13 09:30:57;;;;;;;0.00;0.00;;;32.00;94.70;;;;;;5094128;28;20647;-61
2023/08/13 09:33:23;;;;;;;0.00;0.00;;;32.10;95.50;;;;;;5094090;28;20165;-62
2023/08/13 09:35:48;;;;;;;0.00;0.00;;;32.50;94.10;;;;;;5093851;28;20190;-59
2023/08/13 09:38:14;;;;;;;0.00;0.00;;;32.80;93.40;;;;;;5093918;28;20199;-60
2023/08/13 09:40:39;;;;;;;0.00;0.00;;;33.00;92.00;;;;;;5094110;28;20604;-59
2023/08/13 09:43:09;;;;;;;0.00;0.00;;;33.00;90.90;;;;;;5093919;28;20860;-59
2023/08/13 09:45:35;;;;;;;0.00;0.00;;;32.80;91.50;;;;;;5093315;28;20184;-60
2023/08/13 09:48:04;;;;;;;0.00;0.00;;;32.80;92.20;;;;;;5093716;28;20255;-60
2023/08/13 09:50:34;;;;;;;0.00;0.00;;;32.40;90.10;;;;;;5093534;28;20164;-59
2023/08/13 09:53:01;;;;;;;0.00;0.00;;;32.30;90.70;;;;;;5093584;28;20211;-59
2023/08/13 09:55:32;;;;;;;0.00;0.00;;;31.60;90.20;;;;;;5093390;28;20536;-60
2023/08/13 09:58:00;;;;;;;0.00;0.00;;;31.30;92.00;;;;;;5093546;28;20176;-62
2023/08/13 10:00:27;;;;;;;0.00;0.00;;;31.20;91.50;;;;;;5093248;28;20671;-60
2023/08/13 10:02:53;;;;;;;0.00;0.00;;;31.20;91.70;;;;;;5093503;28;20267;-59
2023/08/13 10:05:19;;;;;;;0.00;0.00;;;31.00;91.90;;;;;;5093292;28;20591;-60
2023/08/13 10:07:45;;;;;;;0.00;0.00;;;30.90;92.70;;;;;;5093393;28;20184;-60
2023/08/13 10:10:11;;;;;;;0.00;0.00;;;30.90;91.30;;;;;;5093287;28;20179;-59
2023/08/13 10:12:38;;;;;;;0.20;0.20;;;31.20;91.90;;;;;;5093333;28;20176;-60
2023/08/13 10:15:04;;;;;;;0.00;0.00;;;31.70;91.60;;;;;;5093370;28;20172;-60
2023/08/13 10:17:32;;;;;;;0.17;0.17;;;31.90;90.90;;;;;;5093354;28;20179;-60
2023/08/13 10:19:59;;;;;;;0.00;0.00;;;32.00;90.80;;;;;;5093109;28;20211;-60
2023/08/13 10:22:40;;;;;;;0.00;0.00;;;32.30;90.20;;;;;;5093375;28;20184;-60
2023/08/13 10:25:07;;;;;;;0.00;0.00;;;32.60;90.10;;;;;;5093156;28;20206;-60
2023/08/13 10:27:41;;;;;;;0.00;0.00;;;32.40;87.40;;;;;;5093151;28;20183;-60
2023/08/13 10:30:11;;;;;;;0.00;0.00;;;32.20;88.40;;;;;;5092735;28;20228;-60
2023/08/13 10:32:46;;;;;;;0.00;0.00;;;32.10;88.60;;;;;;5092843;28;20701;-60
2023/08/13 10:35:29;;;;;;;0.00;0.00;;;31.80;87.50;;;;;;5092885;28;20672;-60
2023/08/13 10:37:59;;;;;;;0.00;0.00;;;31.60;89.30;;;;;;5093010;28;20213;-60
2023/08/13 10:40:26;;;;;;;0.00;0.00;;;31.30;90.10;;;;;;5092753;28;20843;-60
2023/08/13 10:42:53;;;;;;;0.00;0.00;;;31.30;89.70;;;;;;5092703;28;20172;-60
2023/08/13 10:45:22;;;;;;;0.00;0.00;;;31.50;90.40;;;;;;5092508;28;20184;-60
2023/08/13 10:47:56;;;;;;;0.00;0.00;;;31.60;88.80;;;;;;5092479;28;20183;-60
2023/08/13 10:50:30;;;;;;;0.00;0.00;;;31.60;90.00;;;;;;5092494;28;20320;-60
2023/08/13 10:53:04;;;;;;;0.00;0.00;;;31.50;89.90;;;;;;5092577;28;20276;-60
2023/08/13 10:55:32;;;;;;;0.10;0.10;;;31.20;90.40;;;;;;5092127;28;20255;-59
2023/08/13 10:57:59;;;;;;;0.00;0.00;;;30.70;90.40;;;;;;5091947;28;20206;-60
2023/08/13 11:00:26;;;;;;;0.00;0.00;;;30.30;91.60;;;;;;5092347;28;20211;-60
2023/08/13 11:03:14;;;;;;;0.00;0.00;;;29.90;91.90;;;;;;5092385;28;20172;-60
2023/08/13 11:05:39;;;;;;;0.00;0.00;;;29.90;92.10;;;;;;5092282;28;20218;-60
2023/08/13 11:08:06;;;;;;;0.00;0.00;;;29.80;91.90;;;;;;5092250;28;20587;-60
2023/08/13 11:10:33;;;;;;;0.00;0.00;;;29.80;92.10;;;;;;5092297;28;20179;-59
2023/08/13 11:13:00;;;;;;;0.00;0.00;;;29.60;92.70;;;;;;5092232;28;20203;-60
2023/08/13 11:15:28;;;;;;;0.00;0.00;;;29.50;93.20;;;;;;5092000;28;20180;-60
2023/08/13 11:17:53;;;;;;;0.57;0.25;;;29.30;93.20;;;;;;5092175;28;20168;-60
2023/08/13 11:20:19;;;;;;;0.00;0.00;;;29.10;93.70;;;;;;5091905;28;20722;-60
2023/08/13 11:22:46;;;;;;;0.00;0.00;;;29.00;93.60;;;;;;5092191;28;21081;-60
2023/08/13 11:25:13;;;;;;;0.00;0.00;;;29.20;94.20;;;;;;5091952;28;20191;-61
2023/08/13 11:27:39;;;;;;;0.00;0.00;;;29.10;93.30;;;;;;5091941;28;20717;-61
2023/08/13 11:30:07;;;;;;;0.00;0.00;;;29.20;93.60;;;;;;5091640;28;20223;-61
2023/08/13 11:32:33;;;;;;;0.00;0.00;;;29.10;93.40;;;;;;5091915;28;20179;-62
2023/08/13 11:34:59;;;;;;;0.00;0.00;;;28.90;93.40;;;;;;5091759;28;20176;-61
2023/08/13 11:37:25;;;;;;;0.00;0.00;;;28.90;94.00;;;;;;5091886;28;20176;-61
2023/08/13 11:39:50;;;;;;;0.00;0.00;;;28.90;94.10;;;;;;5091779;28;20229;-62
2023/08/13 11:42:16;;;;;;;0.00;0.00;;;28.90;94.10;;;;;;5091686;28;20184;-61
2023/08/13 11:44:41;;;;;;;0.00;0.00;;;28.70;94.00;;;;;;5091773;28;20263;-61
2023/08/13 11:47:07;;;;;;;0.00;0.00;;;28.60;94.00;;;;;;5091584;28;20208;-61
2023/08/13 11:49:42;;;;;;;0.00;0.00;;;28.40;94.30;;;;;;5091699;28;20176;-61
2023/08/13 11:52:08;;;;;;;0.00;0.00;;;28.30;94.70;;;;;;5091523;28;20195;-61
2023/08/13 11:54:36;;;;;;;0.00;0.00;;;28.20;95.40;;;;;;5091689;28;20207;-60
2023/08/13 11:57:03;;;;;;;0.00;0.00;;;28.30;96.30;;;;;;5091675;28;20210;-61
2023/08/13 11:59:31;;;;;;;0.00;0.00;;;28.50;96.80;;;;;;5091591;28;20225;-61
2023/08/13 12:01:57;;;;;;;0.00;0.00;;;28.60;96.20;;;;;;5091571;28;20211;-61
2023/08/13 12:04:23;;;;;;;0.00;0.00;;;28.60;95.00;;;;;;5091617;28;20187;-61
2023/08/13 12:06:51;;;;;;;0.00;0.00;;;28.50;94.70;;;;;;5091532;28;20557;-61
2023/08/13 12:09:18;;;;;;;0.05;0.05;;;28.30;95.20;;;;;;5095499;28;20172;-61
2023/08/13 12:11:44;;;;;;;0.00;0.00;;;28.30;95.20;;;;;;5095662;28;20727;-61
2023/08/13 12:14:10;;;;;;;0.00;0.00;;;28.30;95.70;;;;;;5095502;28;20172;-61
2023/08/13 12:16:36;;;;;;;0.00;0.00;;;28.20;95.30;;;;;;5095478;28;20177;-61
2023/08/13 12:19:06;;;;;;;0.00;0.00;;;28.30;95.70;;;;;;5095327;28;20230;-61
2023/08/13 12:21:33;;;;;;;0.00;0.00;;;28.40;95.80;;;;;;5095430;28;20227;-61
2023/08/13 12:23:58;;;;;;;0.00;0.00;;;28.60;95.80;;;;;;5095316;28;20639;-61
2023/08/13 12:26:24;;;;;;;0.38;0.38;;;29.10;95.40;;;;;;5095557;28;20232;-61
2023/08/13 12:28:53;;;;;;;0.00;0.00;;;29.40;93.20;;;;;;5095062;28;20215;-61
2023/08/13 12:31:18;;;;;;;0.00;0.00;;;29.80;93.30;;;;;;5095264;28;20176;-62
2023/08/13 12:33:45;;;;;;;0.00;0.00;;;30.10;92.20;;;;;;5095225;28;20176;-61
2023/08/13 12:36:10;;;;;;;0.00;0.00;;;30.50;92.40;;;;;;5095164;28;20255;-62
2023/08/13 12:38:39;;;;;;;0.00;0.00;;;30.60;91.60;;;;;;5095228;28;20247;-61
2023/08/13 12:41:05;;;;;;;0.00;0.00;;;30.60;91.30;;;;;;5094881;28;20261;-61
2023/08/13 12:43:31;;;;;;;0.00;0.00;;;30.50;90.50;;;;;;5095214;28;20267;-61
2023/08/13 12:45:56;;;;;;;0.03;0.00;;;30.30;90.30;;;;;;5095051;28;20855;-61